Terminal Aerodrome Forecast
Issued by NWS

Home | Current Version | Previous Version | Text Only | Print | Product List | Glossary On
Versions: 1 2 3 4 5 6 7 8 9 10 11 12 13 14 15 16 17 18 19 20 21 22
350
FTAK31 PAJN 232325
TAFASI
TAF
PASI 232325Z 2400/2424 11005KT P6SM VCSH SCT035 BKN050
     FM241200 13005KT P6SM SCT015 OVC050=

USA.gov is the U.S. government's official web portal to all federal, state and local government web resources and services.